Terminal Aerodrome Forecast
Issued by NWS Atlanta, GA

Home | Current Version | Previous Version | Text Only | Print | Product List | Glossary On
Versions: 1 2 3 4 5 6 7 8 9 10 11 12 13 14 15 16 17 18 19 20 21 22 23 24 25 26 27 28 29 30 31 32 33 34 35 36 37
000
FTUS42 KFFC 171559 AAC
TAFATL
TAF AMD
KATL 171559Z 1716/1818 22008KT P6SM FEW050 SCT080 BKN250
     FM172000 20010KT P6SM SCT030 BKN250
     FM180200 21007KT P6SM FEW030 SCT080 BKN200
     FM180900 23006KT 5SM BR OVC007
     FM181400 28008KT P6SM OVC010=

USA.gov is the U.S. government's official web portal to all federal, state and local government web resources and services.